Athens, Pennsylvania
Current Conditions -  °F | °C
As of 3:30 PM on Wednesday 26 Nov 2014 (Local Time) from KELM Reporting Station
Light Snow Light Snow  
Wind Chill: -2°   Ceiling: 2300
Heat Index:   Visibility: 1.2mi
Dew Point: -1°   Wind: 6mph
Humidity: 89%   Direction: 360°N
Pressure: 30.03"   Gusts: NA
Location:  41.96°N, 76.52°W
Report Text: KELM 262030Z 36005KT 1 1/4SM -SN BR OVC023 01/M01 A3003 RMK AO2 P0001 T00061011
Loading
Personal Weather Stations






























Interactive Weather Map New forecast layout! Learn more

10-Day Weather Forecast

Advertisements
Track Severe Weather on mobile